sensor_id;sensor_type;location;lat;lon;timestamp;pressure;altitude;pressure_sealevel;temperature;humidity
23253;BME280;11795;47.054;15.408;2022-10-16T00:00:00;97690;;;11.9;95.0
23253;BME280;11795;47.054;15.408;2022-10-16T00:02:00;97690;;;12.1;94.5
23253;BME280;11795;47.054;15.408;2022-10-16T00:04:01;97690;;;11.9;94.7
23253;BME280;11795;47.054;15.408;2022-10-16T00:06:00;97690;;;11.8;95.2
23253;BME280;11795;47.054;15.408;2022-10-16T00:08:00;97690;;;12.0;94.4
23253;BME280;11795;47.054;15.408;2022-10-16T00:10:00;97690;;;11.9;94.7
23253;BME280;11795;47.054;15.408;2022-10-16T00:12:00;97690;;;12.0;94.4
23253;BME280;11795;47.054;15.408;2022-10-16T00:14:01;97700;;;11.9;94.5
23253;BME280;11795;47.054;15.408;2022-10-16T00:16:01;97690;;;11.8;95.0
23253;BME280;11795;47.054;15.408;2022-10-16T00:18:00;97690;;;11.9;94.3
23253;BME280;11795;47.054;15.408;2022-10-16T00:20:00;97690;;;11.8;94.8
23253;BME280;11795;47.054;15.408;2022-10-16T00:22:00;97700;;;12.0;94.6
23253;BME280;11795;47.054;15.408;2022-10-16T00:24:02;97700;;;11.8;94.7
23253;BME280;11795;47.054;15.408;2022-10-16T00:26:03;97700;;;11.8;95.1
23253;BME280;11795;47.054;15.408;2022-10-16T00:28:00;97700;;;11.9;94.5
23253;BME280;11795;47.054;15.408;2022-10-16T00:30:00;97700;;;11.8;95.0
23253;BME280;11795;47.054;15.408;2022-10-16T00:32:00;97700;;;12.0;94.6
23253;BME280;11795;47.054;15.408;2022-10-16T00:34:00;97700;;;11.9;94.8
23253;BME280;11795;47.054;15.408;2022-10-16T00:36:01;97700;;;11.9;95.2
23253;BME280;11795;47.054;15.408;2022-10-16T00:38:00;97700;;;12.0;94.6
23253;BME280;11795;47.054;15.408;2022-10-16T00:40:00;97700;;;11.9;95.3
23253;BME280;11795;47.054;15.408;2022-10-16T00:42:00;97700;;;12.1;95.0
23253;BME280;11795;47.054;15.408;2022-10-16T00:44:02;97700;;;11.9;95.0
23253;BME280;11795;47.054;15.408;2022-10-16T00:46:01;97710;;;11.9;95.4
23253;BME280;11795;47.054;15.408;2022-10-16T00:48:00;97710;;;12.0;94.7
23253;BME280;11795;47.054;15.408;2022-10-16T00:50:07;97710;;;11.9;95.2
23253;BME280;11795;47.054;15.408;2022-10-16T00:52:00;97710;;;12.1;94.9
23253;BME280;11795;47.054;15.408;2022-10-16T00:54:01;97710;;;12.0;94.9
23253;BME280;11795;47.054;15.408;2022-10-16T00:56:00;97720;;;11.9;95.3
23253;BME280;11795;47.054;15.408;2022-10-16T00:58:00;97710;;;12.0;94.7
23253;BME280;11795;47.054;15.408;2022-10-16T01:00:01;97720;;;11.9;95.1
23253;BME280;11795;47.054;15.408;2022-10-16T01:02:01;97720;;;12.1;94.9
23253;BME280;11795;47.054;15.408;2022-10-16T01:04:00;97720;;;11.9;94.9
23253;BME280;11795;47.054;15.408;2022-10-16T01:06:09;97710;;;11.9;95.2
23253;BME280;11795;47.054;15.408;2022-10-16T01:08:04;97710;;;12.0;94.2
23253;BME280;11795;47.054;15.408;2022-10-16T01:10:10;97710;;;11.9;94.7
23253;BME280;11795;47.054;15.408;2022-10-16T01:12:10;97710;;;12.0;94.6
23253;BME280;11795;47.054;15.408;2022-10-16T01:14:06;97720;;;11.9;94.7
23253;BME280;11795;47.054;15.408;2022-10-16T01:16:04;97720;;;11.8;95.0
23253;BME280;11795;47.054;15.408;2022-10-16T01:18:05;97720;;;11.9;94.6
23253;BME280;11795;47.054;15.408;2022-10-16T01:20:08;97710;;;11.8;95.1
23253;BME280;11795;47.054;15.408;2022-10-16T01:22:01;97710;;;12.0;95.0
23253;BME280;11795;47.054;15.408;2022-10-16T01:24:05;97710;;;11.9;95.1
23253;BME280;11795;47.054;15.408;2022-10-16T01:26:13;97710;;;11.8;95.6
23253;BME280;11795;47.054;15.408;2022-10-16T01:28:02;97710;;;11.9;95.1
23253;BME280;11795;47.054;15.408;2022-10-16T01:30:04;97710;;;11.8;95.5
23253;BME280;11795;47.054;15.408;2022-10-16T01:32:04;97710;;;12.0;95.3
23253;BME280;11795;47.054;15.408;2022-10-16T01:34:03;97710;;;11.8;95.3
23253;BME280;11795;47.054;15.408;2022-10-16T01:36:03;97720;;;11.8;95.7
23253;BME280;11795;47.054;15.408;2022-10-16T01:38:03;97720;;;11.9;95.2
23253;BME280;11795;47.054;15.408;2022-10-16T01:40:02;97720;;;11.8;95.4
23253;BME280;11795;47.054;15.408;2022-10-16T01:42:04;97720;;;11.9;95.2
23253;BME280;11795;47.054;15.408;2022-10-16T01:44:03;97720;;;11.7;95.0
23253;BME280;11795;47.054;15.408;2022-10-16T01:46:00;97720;;;11.6;95.5
23253;BME280;11795;47.054;15.408;2022-10-16T01:48:01;97720;;;11.7;94.9
23253;BME280;11795;47.054;15.408;2022-10-16T01:50:02;97720;;;11.6;95.3
23253;BME280;11795;47.054;15.408;2022-10-16T01:52:05;97710;;;11.8;95.1
23253;BME280;11795;47.054;15.408;2022-10-16T01:54:01;97710;;;11.6;94.9
23253;BME280;11795;47.054;15.408;2022-10-16T01:56:02;97710;;;11.6;95.4
23253;BME280;11795;47.054;15.408;2022-10-16T01:58:01;97710;;;11.7;94.7
23253;BME280;11795;47.054;15.408;2022-10-16T02:00:03;97710;;;11.6;95.0
23253;BME280;11795;47.054;15.408;2022-10-16T02:02:04;97700;;;11.8;95.0
23253;BME280;11795;47.054;15.408;2022-10-16T02:04:07;97700;;;11.6;94.9
23253;BME280;11795;47.054;15.408;2022-10-16T02:06:00;97700;;;11.6;95.4
23253;BME280;11795;47.054;15.408;2022-10-16T02:08:00;97700;;;11.7;95.1
23253;BME280;11795;47.054;15.408;2022-10-16T02:10:00;97710;;;11.5;95.3
23253;BME280;11795;47.054;15.408;2022-10-16T02:12:07;97710;;;11.7;95.4
23253;BME280;11795;47.054;15.408;2022-10-16T02:14:04;97710;;;11.5;95.4
23253;BME280;11795;47.054;15.408;2022-10-16T02:16:00;97710;;;11.4;96.0
23253;BME280;11795;47.054;15.408;2022-10-16T02:18:01;97710;;;11.6;95.6
23253;BME280;11795;47.054;15.408;2022-10-16T02:20:00;97710;;;11.5;96.1
23253;BME280;11795;47.054;15.408;2022-10-16T02:22:03;97710;;;11.7;96.1
23253;BME280;11795;47.054;15.408;2022-10-16T02:24:03;97710;;;11.5;96.2
23253;BME280;11795;47.054;15.408;2022-10-16T02:26:03;97710;;;11.5;96.4
23253;BME280;11795;47.054;15.408;2022-10-16T02:28:03;97720;;;11.6;95.3
23253;BME280;11795;47.054;15.408;2022-10-16T02:30:05;97720;;;11.5;95.7
23253;BME280;11795;47.054;15.408;2022-10-16T02:32:02;97720;;;11.6;95.8
23253;BME280;11795;47.054;15.408;2022-10-16T02:34:02;97720;;;11.5;95.7
23253;BME280;11795;47.054;15.408;2022-10-16T02:36:00;97720;;;11.5;96.1
23253;BME280;11795;47.054;15.408;2022-10-16T02:38:00;97720;;;11.6;95.3
23253;BME280;11795;47.054;15.408;2022-10-16T02:40:00;97720;;;11.4;95.9
23253;BME280;11795;47.054;15.408;2022-10-16T02:42:00;97720;;;11.6;96.1
23253;BME280;11795;47.054;15.408;2022-10-16T02:44:00;97720;;;11.4;96.0
23253;BME280;11795;47.054;15.408;2022-10-16T02:46:00;97730;;;11.4;96.5
23253;BME280;11795;47.054;15.408;2022-10-16T02:48:00;97720;;;11.5;96.0
23253;BME280;11795;47.054;15.408;2022-10-16T02:50:00;97730;;;11.4;96.4
23253;BME280;11795;47.054;15.408;2022-10-16T02:52:00;97730;;;11.5;96.6
23253;BME280;11795;47.054;15.408;2022-10-16T02:54:01;97730;;;11.5;96.2
23253;BME280;11795;47.054;15.408;2022-10-16T02:56:00;97740;;;11.4;96.5
23253;BME280;11795;47.054;15.408;2022-10-16T02:58:00;97740;;;11.5;96.1
23253;BME280;11795;47.054;15.408;2022-10-16T03:00:00;97740;;;11.4;96.6
23253;BME280;11795;47.054;15.408;2022-10-16T03:02:00;97740;;;11.5;96.9
23253;BME280;11795;47.054;15.408;2022-10-16T03:04:00;97740;;;11.4;96.6
23253;BME280;11795;47.054;15.408;2022-10-16T03:06:00;97740;;;11.3;97.1
23253;BME280;11795;47.054;15.408;2022-10-16T03:08:00;97750;;;11.5;96.6
23253;BME280;11795;47.054;15.408;2022-10-16T03:10:00;97750;;;11.4;97.0
23253;BME280;11795;47.054;15.408;2022-10-16T03:12:00;97750;;;11.5;97.1
23253;BME280;11795;47.054;15.408;2022-10-16T03:14:00;97750;;;11.4;96.7
23253;BME280;11795;47.054;15.408;2022-10-16T03:16:00;97740;;;11.3;97.2
23253;BME280;11795;47.054;15.408;2022-10-16T03:18:00;97740;;;11.5;96.7
23253;BME280;11795;47.054;15.408;2022-10-16T03:20:00;97740;;;11.4;97.1
23253;BME280;11795;47.054;15.408;2022-10-16T03:22:00;97740;;;11.5;97.2
23253;BME280;11795;47.054;15.408;2022-10-16T03:24:00;97740;;;11.5;97.0
23253;BME280;11795;47.054;15.408;2022-10-16T03:26:00;97730;;;11.4;97.5
23253;BME280;11795;47.054;15.408;2022-10-16T03:28:00;97730;;;11.6;97.0
23253;BME280;11795;47.054;15.408;2022-10-16T03:30:00;97730;;;11.4;97.4
23253;BME280;11795;47.054;15.408;2022-10-16T03:32:00;97730;;;11.5;97.6
23253;BME280;11795;47.054;15.408;2022-10-16T03:34:00;97730;;;11.5;97.3
23253;BME280;11795;47.054;15.408;2022-10-16T03:36:00;97730;;;11.4;97.6
23253;BME280;11795;47.054;15.408;2022-10-16T03:38:00;97730;;;11.5;97.1
23253;BME280;11795;47.054;15.408;2022-10-16T03:40:00;97730;;;11.4;97.7
23253;BME280;11795;47.054;15.408;2022-10-16T03:42:00;97740;;;11.5;98.0
23253;BME280;11795;47.054;15.408;2022-10-16T03:44:00;97740;;;11.4;97.8
23253;BME280;11795;47.054;15.408;2022-10-16T03:46:00;97740;;;11.4;98.3
23253;BME280;11795;47.054;15.408;2022-10-16T03:48:00;97750;;;11.5;97.8
23253;BME280;11795;47.054;15.408;2022-10-16T03:50:00;97740;;;11.4;98.3
23253;BME280;11795;47.054;15.408;2022-10-16T03:52:00;97750;;;11.5;98.5
23253;BME280;11795;47.054;15.408;2022-10-16T03:54:00;97750;;;11.5;98.1
23253;BME280;11795;47.054;15.408;2022-10-16T03:56:00;97750;;;11.4;98.6
23253;BME280;11795;47.054;15.408;2022-10-16T03:58:00;97750;;;11.5;98.1
23253;BME280;11795;47.054;15.408;2022-10-16T04:00:00;97750;;;11.4;98.4
23253;BME280;11795;47.054;15.408;2022-10-16T04:02:00;97760;;;11.5;98.8
23253;BME280;11795;47.054;15.408;2022-10-16T04:04:00;97760;;;11.4;98.3
23253;BME280;11795;47.054;15.408;2022-10-16T04:06:00;97760;;;11.4;98.9
23253;BME280;11795;47.054;15.408;2022-10-16T04:08:00;97760;;;11.5;98.6
23253;BME280;11795;47.054;15.408;2022-10-16T04:10:00;97760;;;11.4;99.0
23253;BME280;11795;47.054;15.408;2022-10-16T04:12:00;97760;;;11.4;99.2
23253;BME280;11795;47.054;15.408;2022-10-16T04:14:00;97760;;;11.4;98.6
23253;BME280;11795;47.054;15.408;2022-10-16T04:16:00;97760;;;11.4;98.9
23253;BME280;11795;47.054;15.408;2022-10-16T04:18:00;97770;;;11.4;98.6
23253;BME280;11795;47.054;15.408;2022-10-16T04:20:00;97770;;;11.4;98.9
23253;BME280;11795;47.054;15.408;2022-10-16T04:22:00;97760;;;11.4;99.2
23253;BME280;11795;47.054;15.408;2022-10-16T04:24:00;97760;;;11.4;98.8
23253;BME280;11795;47.054;15.408;2022-10-16T04:26:00;97760;;;11.3;99.3
23253;BME280;11795;47.054;15.408;2022-10-16T04:28:00;97760;;;11.4;99.4
23253;BME280;11795;47.054;15.408;2022-10-16T04:30:00;97760;;;11.2;100.0
23253;BME280;11795;47.054;15.408;2022-10-16T04:32:00;97760;;;11.3;100.0
23253;BME280;11795;47.054;15.408;2022-10-16T04:34:00;97760;;;11.2;100.0
23253;BME280;11795;47.054;15.408;2022-10-16T04:36:01;97770;;;11.2;100.0
23253;BME280;11795;47.054;15.408;2022-10-16T04:38:00;97770;;;11.3;100.0
23253;BME280;11795;47.054;15.408;2022-10-16T04:40:00;97770;;;11.2;100.0
23253;BME280;11795;47.054;15.408;2022-10-16T04:42:00;97770;;;11.2;100.0
23253;BME280;11795;47.054;15.408;2022-10-16T04:44:00;97770;;;11.3;100.0
23253;BME280;11795;47.054;15.408;2022-10-16T04:46:00;97770;;;11.1;100.0
23253;BME280;11795;47.054;15.408;2022-10-16T04:48:00;97770;;;11.2;100.0
23253;BME280;11795;47.054;15.408;2022-10-16T04:50:03;97780;;;11.1;100.0
23253;BME280;11795;47.054;15.408;2022-10-16T04:52:00;97780;;;11.1;100.0
23253;BME280;11795;47.054;15.408;2022-10-16T04:54:00;97790;;;11.2;100.0
23253;BME280;11795;47.054;15.408;2022-10-16T04:56:00;97780;;;11.1;100.0
23253;BME280;11795;47.054;15.408;2022-10-16T04:58:00;97780;;;11.3;100.0
23253;BME280;11795;47.054;15.408;2022-10-16T05:00:00;97780;;;11.2;100.0
23253;BME280;11795;47.054;15.408;2022-10-16T05:02:00;97790;;;11.1;100.0
23253;BME280;11795;47.054;15.408;2022-10-16T05:04:00;97790;;;11.1;100.0
23253;BME280;11795;47.054;15.408;2022-10-16T05:06:00;97790;;;11.1;100.0
23253;BME280;11795;47.054;15.408;2022-10-16T05:08:00;97800;;;11.2;100.0
23253;BME280;11795;47.054;15.408;2022-10-16T05:10:00;97800;;;11.1;100.0
23253;BME280;11795;47.054;15.408;2022-10-16T05:12:00;97800;;;11.1;100.0
23253;BME280;11795;47.054;15.408;2022-10-16T05:14:00;97800;;;11.1;100.0
23253;BME280;11795;47.054;15.408;2022-10-16T05:16:00;97810;;;11.1;100.0
23253;BME280;11795;47.054;15.408;2022-10-16T05:18:00;97810;;;11.2;100.0
23253;BME280;11795;47.054;15.408;2022-10-16T05:20:00;97810;;;11.1;100.0
23253;BME280;11795;47.054;15.408;2022-10-16T05:22:00;97810;;;11.1;100.0
23253;BME280;11795;47.054;15.408;2022-10-16T05:24:00;97810;;;11.2;100.0
23253;BME280;11795;47.054;15.408;2022-10-16T05:26:00;97820;;;11.1;100.0
23253;BME280;11795;47.054;15.408;2022-10-16T05:28:00;97820;;;11.2;100.0
23253;BME280;11795;47.054;15.408;2022-10-16T05:30:00;97830;;;11.1;100.0
23253;BME280;11795;47.054;15.408;2022-10-16T05:32:00;97830;;;11.0;100.0
23253;BME280;11795;47.054;15.408;2022-10-16T05:34:01;97830;;;11.1;100.0
23253;BME280;11795;47.054;15.408;2022-10-16T05:36:01;97830;;;11.0;100.0
23253;BME280;11795;47.054;15.408;2022-10-16T05:38:00;97830;;;11.2;100.0
23253;BME280;11795;47.054;15.408;2022-10-16T05:40:01;97840;;;11.1;100.0
23253;BME280;11795;47.054;15.408;2022-10-16T05:42:00;97830;;;11.0;100.0
23253;BME280;11795;47.054;15.408;2022-10-16T05:44:03;97830;;;11.1;100.0
23253;BME280;11795;47.054;15.408;2022-10-16T05:46:04;97830;;;11.1;100.0
23253;BME280;11795;47.054;15.408;2022-10-16T05:48:00;97830;;;11.2;100.0
23253;BME280;11795;47.054;15.408;2022-10-16T05:50:00;97830;;;11.1;100.0
23253;BME280;11795;47.054;15.408;2022-10-16T05:52:00;97820;;;11.0;100.0
23253;BME280;11795;47.054;15.408;2022-10-16T05:54:00;97830;;;11.1;100.0
23253;BME280;11795;47.054;15.408;2022-10-16T05:56:00;97840;;;11.0;100.0
23253;BME280;11795;47.054;15.408;2022-10-16T05:58:00;97840;;;11.2;100.0
23253;BME280;11795;47.054;15.408;2022-10-16T06:00:00;97850;;;11.1;100.0
23253;BME280;11795;47.054;15.408;2022-10-16T06:02:00;97850;;;11.1;100.0
23253;BME280;11795;47.054;15.408;2022-10-16T06:04:01;97850;;;11.2;100.0
23253;BME280;11795;47.054;15.408;2022-10-16T06:06:07;97860;;;11.1;100.0
23253;BME280;11795;47.054;15.408;2022-10-16T06:08:00;97860;;;11.3;100.0
23253;BME280;11795;47.054;15.408;2022-10-16T06:10:00;97870;;;11.2;100.0
23253;BME280;11795;47.054;15.408;2022-10-16T06:12:00;97870;;;11.2;100.0
23253;BME280;11795;47.054;15.408;2022-10-16T06:14:02;97880;;;11.3;100.0
23253;BME280;11795;47.054;15.408;2022-10-16T06:16:01;97880;;;11.3;100.0
23253;BME280;11795;47.054;15.408;2022-10-16T06:18:00;97880;;;11.5;100.0
23253;BME280;11795;47.054;15.408;2022-10-16T06:20:00;97880;;;11.3;100.0
23253;BME280;11795;47.054;15.408;2022-10-16T06:22:00;97880;;;11.3;100.0
23253;BME280;11795;47.054;15.408;2022-10-16T06:24:00;97880;;;11.4;100.0
23253;BME280;11795;47.054;15.408;2022-10-16T06:26:05;97880;;;11.4;100.0
23253;BME280;11795;47.054;15.408;2022-10-16T06:28:00;97880;;;11.6;100.0
23253;BME280;11795;47.054;15.408;2022-10-16T06:30:00;97890;;;11.4;100.0
23253;BME280;11795;47.054;15.408;2022-10-16T06:32:00;97890;;;11.4;100.0
23253;BME280;11795;47.054;15.408;2022-10-16T06:34:00;97900;;;11.6;100.0
23253;BME280;11795;47.054;15.408;2022-10-16T06:36:01;97900;;;11.6;100.0
23253;BME280;11795;47.054;15.408;2022-10-16T06:38:00;97900;;;11.8;100.0
23253;BME280;11795;47.054;15.408;2022-10-16T06:40:00;97900;;;11.7;100.0
23253;BME280;11795;47.054;15.408;2022-10-16T06:42:00;97900;;;11.7;100.0
23253;BME280;11795;47.054;15.408;2022-10-16T06:44:00;97910;;;11.9;100.0
23253;BME280;11795;47.054;15.408;2022-10-16T06:46:01;97910;;;11.8;100.0
23253;BME280;11795;47.054;15.408;2022-10-16T06:48:00;97910;;;12.1;100.0
23253;BME280;11795;47.054;15.408;2022-10-16T06:50:00;97920;;;11.9;100.0
23253;BME280;11795;47.054;15.408;2022-10-16T06:52:02;97920;;;11.9;100.0
23253;BME280;11795;47.054;15.408;2022-10-16T06:54:00;97910;;;12.1;100.0
23253;BME280;11795;47.054;15.408;2022-10-16T06:56:06;97920;;;12.1;100.0
23253;BME280;11795;47.054;15.408;2022-10-16T06:58:00;97920;;;12.3;100.0
23253;BME280;11795;47.054;15.408;2022-10-16T07:00:00;97920;;;12.2;100.0
23253;BME280;11795;47.054;15.408;2022-10-16T07:02:00;97920;;;12.2;100.0
23253;BME280;11795;47.054;15.408;2022-10-16T07:04:01;97920;;;12.3;100.0
23253;BME280;11795;47.054;15.408;2022-10-16T07:06:01;97920;;;12.3;100.0
23253;BME280;11795;47.054;15.408;2022-10-16T07:08:00;97920;;;12.4;99.6
23253;BME280;11795;47.054;15.408;2022-10-16T07:10:00;97920;;;12.3;99.3
23253;BME280;11795;47.054;15.408;2022-10-16T07:12:00;97920;;;12.3;99.8
23253;BME280;11795;47.054;15.408;2022-10-16T07:14:00;97920;;;12.4;99.1
23253;BME280;11795;47.054;15.408;2022-10-16T07:16:04;97920;;;12.3;99.8
23253;BME280;11795;47.054;15.408;2022-10-16T07:18:00;97920;;;12.5;99.6
23253;BME280;11795;47.054;15.408;2022-10-16T07:20:00;97920;;;12.4;99.5
23253;BME280;11795;47.054;15.408;2022-10-16T07:22:00;97920;;;12.4;99.6
23253;BME280;11795;47.054;15.408;2022-10-16T07:24:02;97930;;;12.5;98.5
23253;BME280;11795;47.054;15.408;2022-10-16T07:26:00;97930;;;12.4;98.3
23253;BME280;11795;47.054;15.408;2022-10-16T07:28:00;97930;;;12.6;97.3
23253;BME280;11795;47.054;15.408;2022-10-16T07:30:00;97940;;;12.4;98.1
23253;BME280;11795;47.054;15.408;2022-10-16T07:32:01;97930;;;12.4;98.7
23253;BME280;11795;47.054;15.408;2022-10-16T07:34:00;97930;;;12.6;98.2
23253;BME280;11795;47.054;15.408;2022-10-16T07:36:00;97930;;;12.6;98.7
23253;BME280;11795;47.054;15.408;2022-10-16T07:38:00;97930;;;12.9;98.1
23253;BME280;11795;47.054;15.408;2022-10-16T07:40:00;97930;;;12.7;97.8
23253;BME280;11795;47.054;15.408;2022-10-16T07:42:00;97930;;;12.8;98.9
23253;BME280;11795;47.054;15.408;2022-10-16T07:44:00;97940;;;13.1;98.7
23253;BME280;11795;47.054;15.408;2022-10-16T07:46:00;97940;;;13.2;99.0
23253;BME280;11795;47.054;15.408;2022-10-16T07:48:00;97940;;;13.5;97.5
23253;BME280;11795;47.054;15.408;2022-10-16T07:50:00;97940;;;13.5;96.4
23253;BME280;11795;47.054;15.408;2022-10-16T07:52:00;97930;;;13.6;96.2
23253;BME280;11795;47.054;15.408;2022-10-16T07:54:00;97940;;;13.8;94.0
23253;BME280;11795;47.054;15.408;2022-10-16T07:56:01;97940;;;13.8;94.3
23253;BME280;11795;47.054;15.408;2022-10-16T07:58:00;97940;;;13.9;93.9
23253;BME280;11795;47.054;15.408;2022-10-16T08:00:00;97940;;;13.7;93.7
23253;BME280;11795;47.054;15.408;2022-10-16T08:02:00;97940;;;13.7;94.4
23253;BME280;11795;47.054;15.408;2022-10-16T08:04:00;97940;;;13.9;93.6
23253;BME280;11795;47.054;15.408;2022-10-16T08:06:01;97950;;;13.9;93.9
23253;BME280;11795;47.054;15.408;2022-10-16T08:08:00;97950;;;14.1;92.1
23253;BME280;11795;47.054;15.408;2022-10-16T08:10:00;97950;;;14.0;92.1
23253;BME280;11795;47.054;15.408;2022-10-16T08:12:00;97940;;;13.9;92.0
23253;BME280;11795;47.054;15.408;2022-10-16T08:14:00;97940;;;14.1;91.4
23253;BME280;11795;47.054;15.408;2022-10-16T08:16:00;97940;;;14.2;90.8
23253;BME280;11795;47.054;15.408;2022-10-16T08:18:02;97940;;;14.4;89.7
23253;BME280;11795;47.054;15.408;2022-10-16T08:20:00;97950;;;14.4;89.9
23253;BME280;11795;47.054;15.408;2022-10-16T08:22:00;97950;;;14.5;89.4
23253;BME280;11795;47.054;15.408;2022-10-16T08:24:00;97950;;;14.5;87.8
23253;BME280;11795;47.054;15.408;2022-10-16T08:26:03;97950;;;14.7;90.3
23253;BME280;11795;47.054;15.408;2022-10-16T08:28:00;97950;;;15.3;88.5
23253;BME280;11795;47.054;15.408;2022-10-16T08:30:00;97940;;;15.7;86.9
23253;BME280;11795;47.054;15.408;2022-10-16T08:32:00;97950;;;15.9;84.5
23253;BME280;11795;47.054;15.408;2022-10-16T08:34:00;97950;;;16.1;80.4
23253;BME280;11795;47.054;15.408;2022-10-16T08:36:01;97950;;;16.2;82.6
23253;BME280;11795;47.054;15.408;2022-10-16T08:38:02;97950;;;16.5;80.1
23253;BME280;11795;47.054;15.408;2022-10-16T08:40:00;97950;;;16.8;77.1
23253;BME280;11795;47.054;15.408;2022-10-16T08:42:11;97950;;;16.7;76.7
23253;BME280;11795;47.054;15.408;2022-10-16T08:44:16;97950;;;16.9;75.5
23253;BME280;11795;47.054;15.408;2022-10-16T08:46:21;97950;;;17.0;74.8
23253;BME280;11795;47.054;15.408;2022-10-16T08:48:08;97960;;;17.3;74.6
23253;BME280;11795;47.054;15.408;2022-10-16T08:50:08;97960;;;17.5;73.8
23253;BME280;11795;47.054;15.408;2022-10-16T08:52:00;97960;;;17.9;74.1
23253;BME280;11795;47.054;15.408;2022-10-16T08:54:03;97950;;;18.3;70.5
23253;BME280;11795;47.054;15.408;2022-10-16T08:56:00;97960;;;18.2;70.4
23253;BME280;11795;47.054;15.408;2022-10-16T08:58:00;97960;;;18.5;70.9
23253;BME280;11795;47.054;15.408;2022-10-16T09:00:12;97960;;;18.6;68.8
23253;BME280;11795;47.054;15.408;2022-10-16T09:02:01;97960;;;18.8;66.7
23253;BME280;11795;47.054;15.408;2022-10-16T09:06:10;97960;;;19.3;67.2
23253;BME280;11795;47.054;15.408;2022-10-16T09:08:09;97960;;;19.5;65.0
23253;BME280;11795;47.054;15.408;2022-10-16T09:10:11;97960;;;19.2;64.2
23253;BME280;11795;47.054;15.408;2022-10-16T09:12:05;97960;;;19.4;64.9
23253;BME280;11795;47.054;15.408;2022-10-16T09:14:07;97960;;;19.8;63.7
23253;BME280;11795;47.054;15.408;2022-10-16T09:16:09;97950;;;19.8;62.2
23253;BME280;11795;47.054;15.408;2022-10-16T09:18:06;97950;;;20.0;63.2
23253;BME280;11795;47.054;15.408;2022-10-16T09:20:13;97950;;;19.9;62.7
23253;BME280;11795;47.054;15.408;2022-10-16T09:22:04;97950;;;20.2;63.1
23253;BME280;11795;47.054;15.408;2022-10-16T09:24:09;97950;;;20.6;61.6
23253;BME280;11795;47.054;15.408;2022-10-16T09:26:01;97950;;;20.8;61.4
23253;BME280;11795;47.054;15.408;2022-10-16T09:28:00;97950;;;21.1;60.4
23253;BME280;11795;47.054;15.408;2022-10-16T09:30:00;97950;;;21.2;60.7
23253;BME280;11795;47.054;15.408;2022-10-16T09:32:10;97960;;;21.4;59.3
23253;BME280;11795;47.054;15.408;2022-10-16T09:34:02;97960;;;21.6;57.9
23253;BME280;11795;47.054;15.408;2022-10-16T09:36:02;97950;;;21.7;57.2
23253;BME280;11795;47.054;15.408;2022-10-16T09:38:00;97960;;;22.0;57.1
23253;BME280;11795;47.054;15.408;2022-10-16T09:40:00;97960;;;22.0;56.8
23253;BME280;11795;47.054;15.408;2022-10-16T09:42:00;97960;;;22.1;56.8
23253;BME280;11795;47.054;15.408;2022-10-16T09:44:03;97960;;;22.4;55.5
23253;BME280;11795;47.054;15.408;2022-10-16T09:46:02;97960;;;22.0;55.5
23253;BME280;11795;47.054;15.408;2022-10-16T09:48:10;97960;;;22.2;56.7
23253;BME280;11795;47.054;15.408;2022-10-16T09:50:05;97960;;;22.4;56.2
23253;BME280;11795;47.054;15.408;2022-10-16T09:52:04;97960;;;22.2;55.8
23253;BME280;11795;47.054;15.408;2022-10-16T09:54:02;97960;;;22.6;55.8
23253;BME280;11795;47.054;15.408;2022-10-16T09:56:00;97950;;;21.6;56.4
23253;BME280;11795;47.054;15.408;2022-10-16T09:58:00;97960;;;21.6;58.3
23253;BME280;11795;47.054;15.408;2022-10-16T10:00:08;97960;;;21.9;57.5
23253;BME280;11795;47.054;15.408;2022-10-16T10:02:11;97950;;;22.1;56.7
23253;BME280;11795;47.054;15.408;2022-10-16T10:04:02;97960;;;22.4;55.7
23253;BME280;11795;47.054;15.408;2022-10-16T10:06:15;97960;;;22.5;56.2
23253;BME280;11795;47.054;15.408;2022-10-16T10:08:02;97960;;;22.8;55.3
23253;BME280;11795;47.054;15.408;2022-10-16T10:10:02;97950;;;23.1;54.8
23253;BME280;11795;47.054;15.408;2022-10-16T10:12:01;97950;;;22.9;54.2
23253;BME280;11795;47.054;15.408;2022-10-16T10:14:04;97950;;;23.3;54.6
23253;BME280;11795;47.054;15.408;2022-10-16T10:16:01;97960;;;23.5;55.0
23253;BME280;11795;47.054;15.408;2022-10-16T10:18:01;97950;;;23.7;53.6
23253;BME280;11795;47.054;15.408;2022-10-16T10:20:15;97950;;;23.9;51.4
23253;BME280;11795;47.054;15.408;2022-10-16T10:22:00;97950;;;23.5;52.8
23253;BME280;11795;47.054;15.408;2022-10-16T10:24:00;97950;;;23.8;52.3
23253;BME280;11795;47.054;15.408;2022-10-16T10:26:04;97950;;;23.9;51.8
23253;BME280;11795;47.054;15.408;2022-10-16T10:28:15;97950;;;24.0;51.7
23253;BME280;11795;47.054;15.408;2022-10-16T10:30:04;97940;;;24.2;51.1
23253;BME280;11795;47.054;15.408;2022-10-16T10:32:11;97940;;;24.4;50.6
23253;BME280;11795;47.054;15.408;2022-10-16T10:34:08;97940;;;24.7;49.9
23253;BME280;11795;47.054;15.408;2022-10-16T10:36:07;97930;;;24.7;48.9
23253;BME280;11795;47.054;15.408;2022-10-16T10:38:07;97930;;;24.8;49.1
23253;BME280;11795;47.054;15.408;2022-10-16T10:40:08;97930;;;24.8;47.0
23253;BME280;11795;47.054;15.408;2022-10-16T10:42:12;97930;;;24.8;47.5
23253;BME280;11795;47.054;15.408;2022-10-16T10:44:04;97930;;;24.9;47.5
23253;BME280;11795;47.054;15.408;2022-10-16T10:46:04;97940;;;24.7;47.8
23253;BME280;11795;47.054;15.408;2022-10-16T10:48:17;97930;;;24.9;48.0
23253;BME280;11795;47.054;15.408;2022-10-16T10:50:06;97930;;;25.0;47.4
23253;BME280;11795;47.054;15.408;2022-10-16T10:52:10;97930;;;24.9;46.6
23253;BME280;11795;47.054;15.408;2022-10-16T10:54:11;97930;;;24.9;46.7
23253;BME280;11795;47.054;15.408;2022-10-16T10:56:10;97930;;;24.7;47.5
23253;BME280;11795;47.054;15.408;2022-10-16T10:58:14;97930;;;24.8;46.4
23253;BME280;11795;47.054;15.408;2022-10-16T11:00:06;97930;;;25.0;45.8
23253;BME280;11795;47.054;15.408;2022-10-16T11:02:04;97940;;;25.0;47.2
23253;BME280;11795;47.054;15.408;2022-10-16T11:04:14;97930;;;25.3;45.6
23253;BME280;11795;47.054;15.408;2022-10-16T11:06:04;97930;;;24.9;44.1
23253;BME280;11795;47.054;15.408;2022-10-16T11:08:02;97930;;;24.8;45.5
23253;BME280;11795;47.054;15.408;2022-10-16T11:10:03;97930;;;25.0;46.6